Time;durP1;ratioP1;P1;durP2;ratioP2;P2;SDS_P1;SDS_P2;PMS_P1;PMS_P2;Temp;Humidity;BMP_temperature;BMP_pressure;BME280_temperature;BME280_humidity;BME280_pressure;Samples;Min_cycle;Max_cycle;Signal;HPM_P1;HPM_P2
2022/08/21 00:00:13;;;;;;;8.93;5.60;;;15.80;99.90;;;;;;5093742;27;20035;-80
2022/08/21 00:02:48;;;;;;;10.40;7.20;;;15.80;99.90;;;;;;5121987;27;20559;-80
2022/08/21 00:05:14;;;;;;;9.90;5.88;;;15.80;99.90;;;;;;5127339;27;20050;-81
2022/08/21 00:07:40;;;;;;;8.80;6.43;;;15.80;99.90;;;;;;5103340;27;20510;-81
2022/08/21 00:10:10;;;;;;;9.75;6.93;;;15.80;99.90;;;;;;5096215;27;20798;-81
2022/08/21 00:12:37;;;;;;;9.23;5.80;;;15.80;99.90;;;;;;5118532;27;20070;-81
2022/08/21 00:15:06;;;;;;;13.05;7.10;;;15.70;99.90;;;;;;5102628;27;20042;-81
2022/08/21 00:17:31;;;;;;;11.23;6.95;;;15.70;99.90;;;;;;5115573;27;20104;-81
2022/08/21 00:20:00;;;;;;;11.68;7.28;;;15.70;99.90;;;;;;5093111;27;20118;-82
2022/08/21 00:22:29;;;;;;;10.27;6.70;;;15.70;99.90;;;;;;5087709;27;20043;-81
2022/08/21 00:24:58;;;;;;;9.50;6.95;;;15.60;99.90;;;;;;5106783;27;20413;-81
2022/08/21 00:27:25;;;;;;;8.02;6.00;;;15.60;99.90;;;;;;5099554;27;20120;-81
2022/08/21 00:29:53;;;;;;;10.15;6.45;;;15.50;99.90;;;;;;5118532;27;20855;-81
2022/08/21 00:32:24;;;;;;;7.95;5.70;;;15.50;99.90;;;;;;5102922;27;20138;-82
2022/08/21 00:34:51;;;;;;;9.25;6.00;;;15.50;99.90;;;;;;5111054;27;20496;-81
2022/08/21 00:37:16;;;;;;;7.53;5.70;;;15.50;99.90;;;;;;5107272;27;20047;-81
2022/08/21 00:39:42;;;;;;;8.85;6.20;;;15.40;99.90;;;;;;5076358;27;20444;-83
2022/08/21 00:42:09;;;;;;;7.53;5.05;;;15.40;99.90;;;;;;5094065;27;20045;-82
2022/08/21 00:44:38;;;;;;;8.82;5.05;;;15.40;99.90;;;;;;5099597;27;21048;-82
2022/08/21 00:47:08;;;;;;;9.05;5.57;;;15.30;99.90;;;;;;5098918;27;20062;-84
2022/08/21 00:49:33;;;;;;;10.27;6.18;;;15.10;99.90;;;;;;5105556;27;20050;-83
2022/08/21 00:52:01;;;;;;;9.30;5.88;;;15.00;99.90;;;;;;5090213;27;20888;-83
2022/08/21 00:54:30;;;;;;;8.48;5.60;;;14.90;99.90;;;;;;5101717;27;20075;-83
2022/08/21 00:57:01;;;;;;;10.27;6.50;;;14.90;99.90;;;;;;5106482;27;20046;-81
2022/08/21 00:59:27;;;;;;;;;;;14.80;99.90;;;;;;5100792;27;20637;-81
2022/08/21 01:01:54;;;;;;;8.93;6.00;;;14.70;99.90;;;;;;5121201;27;20452;-81
2022/08/21 01:04:26;;;;;;;11.07;6.40;;;14.70;99.90;;;;;;5084210;27;20047;-81
2022/08/21 01:06:54;;;;;;;10.02;5.70;;;14.70;99.90;;;;;;5114977;27;20077;-80
2022/08/21 01:09:23;;;;;;;7.00;5.40;;;14.70;99.90;;;;;;5067866;27;20664;-81
2022/08/21 01:11:49;;;;;;;9.23;5.18;;;14.70;99.90;;;;;;5088919;27;20103;-81
2022/08/21 01:14:15;;;;;;;6.32;4.53;;;14.70;99.90;;;;;;5099496;27;20046;-81
2022/08/21 01:16:47;;;;;;;6.72;5.00;;;14.60;99.90;;;;;;5122718;27;20653;-81
2022/08/21 01:19:14;;;;;;;8.13;5.38;;;14.60;99.90;;;;;;5111519;27;20039;-81
2022/08/21 01:21:40;;;;;;;7.85;5.25;;;14.60;99.90;;;;;;5119966;27;20039;-82
2022/08/21 01:24:12;;;;;;;8.68;5.80;;;14.50;99.90;;;;;;5105653;27;20087;-82
2022/08/21 01:26:39;;;;;;;9.32;5.25;;;14.40;99.90;;;;;;5114810;27;20494;-82
2022/08/21 01:29:25;;;;;;;8.77;5.57;;;14.40;99.90;;;;;;5121150;27;20043;-82
2022/08/21 01:31:51;;;;;;;9.85;5.20;;;14.30;99.90;;;;;;5106956;27;20059;-83
2022/08/21 01:34:17;;;;;;;7.55;6.00;;;14.20;99.90;;;;;;5086112;27;20046;-82
2022/08/21 01:36:45;;;;;;;11.02;5.90;;;14.20;99.90;;;;;;5108029;27;20509;-82
2022/08/21 01:39:11;;;;;;;7.47;5.80;;;14.20;99.90;;;;;;5099215;27;20043;-82
2022/08/21 01:41:37;;;;;;;10.55;6.00;;;14.10;99.90;;;;;;5100313;28;20104;-82
2022/08/21 01:44:03;;;;;;;6.78;5.57;;;14.10;99.90;;;;;;5110590;27;20047;-82
2022/08/21 01:46:29;;;;;;;7.38;5.30;;;14.00;99.90;;;;;;5099598;27;20089;-82
2022/08/21 01:48:54;;;;;;;8.13;5.97;;;14.00;99.90;;;;;;5103823;27;20075;-84
2022/08/21 01:51:20;;;;;;;8.38;6.38;;;14.00;99.90;;;;;;5099495;28;20036;-84
2022/08/21 01:53:49;;;;;;;10.27;6.43;;;13.90;99.90;;;;;;5093115;28;20406;-84
2022/08/21 01:56:16;;;;;;;8.50;6.53;;;13.90;99.90;;;;;;5071814;27;20043;-84
2022/08/21 01:58:44;;;;;;;8.15;6.05;;;13.90;99.90;;;;;;5096082;27;20119;-85
2022/08/21 02:01:10;;;;;;;8.10;6.43;;;13.90;99.90;;;;;;5100458;27;20036;-84
2022/08/21 02:03:37;;;;;;;8.95;7.05;;;13.90;99.90;;;;;;5121152;27;20047;-84
2022/08/21 02:06:14;;;;;;;9.00;6.88;;;13.90;99.90;;;;;;5086284;28;20031;-84
2022/08/21 02:08:40;;;;;;;8.57;6.72;;;13.90;99.90;;;;;;5107883;27;20039;-84
2022/08/21 02:11:06;;;;;;;8.75;6.70;;;13.90;99.90;;;;;;5108584;27;20043;-84
2022/08/21 02:13:32;;;;;;;8.23;6.70;;;13.80;99.90;;;;;;5084641;27;20160;-83
2022/08/21 02:16:00;;;;;;;8.20;7.40;;;13.70;99.90;;;;;;5090964;27;20064;-84
2022/08/21 02:18:26;;;;;;;8.75;6.43;;;13.70;99.90;;;;;;5086160;28;20127;-84
2022/08/21 02:20:52;;;;;;;8.40;7.10;;;13.60;99.90;;;;;;5086514;28;20124;-84
2022/08/21 02:23:18;;;;;;;9.43;7.38;;;13.60;99.90;;;;;;5081648;28;20119;-84
2022/08/21 02:25:45;;;;;;;9.75;7.43;;;13.60;99.90;;;;;;5078708;27;20596;-84
2022/08/21 02:28:14;;;;;;;9.55;6.93;;;13.60;99.90;;;;;;5101444;28;20050;-84
2022/08/21 02:30:44;;;;;;;9.05;8.02;;;13.60;99.90;;;;;;5121085;27;20053;-83
2022/08/21 02:33:11;;;;;;;8.82;7.70;;;13.60;99.90;;;;;;5125874;27;20042;-83
2022/08/21 02:35:41;;;;;;;9.68;7.95;;;13.60;99.90;;;;;;5127302;27;20043;-83
2022/08/21 02:38:09;;;;;;;;;;;13.60;99.90;;;;;;5095759;27;20116;-83
2022/08/21 02:40:40;;;;;;;8.43;7.15;;;13.60;99.90;;;;;;5095027;27;19927;-82
2022/08/21 02:43:07;;;;;;;8.65;7.25;;;13.60;99.90;;;;;;5106637;27;20042;-83
2022/08/21 02:45:43;;;;;;;11.32;9.63;;;13.70;99.90;;;;;;5116322;27;20554;-84
2022/08/21 02:48:12;;;;;;;12.88;9.95;;;13.70;99.90;;;;;;5124209;27;20075;-83
2022/08/21 02:51:06;;;;;;;12.38;11.15;;;13.80;99.90;;;;;;5121036;27;20039;-83
2022/08/21 02:54:03;;;;;;;14.73;10.43;;;13.90;99.90;;;;;;5101926;27;20059;-82
2022/08/21 02:56:29;;;;;;;13.65;12.20;;;13.90;99.90;;;;;;5110655;27;20127;-83
2022/08/21 02:58:55;;;;;;;13.05;11.75;;;14.00;99.90;;;;;;5111306;27;20072;-83
2022/08/21 03:01:21;;;;;;;15.55;13.90;;;14.00;99.90;;;;;;5095980;27;20031;-83
2022/08/21 03:03:51;;;;;;;15.73;14.15;;;14.10;99.90;;;;;;5093025;27;20511;-83
2022/08/21 03:06:19;;;;;;;16.23;14.35;;;14.10;99.90;;;;;;5120511;27;20501;-83
2022/08/21 03:08:45;;;;;;;13.82;12.23;;;14.10;99.90;;;;;;5116364;27;20046;-83
2022/08/21 03:11:12;;;;;;;15.25;13.55;;;14.10;99.90;;;;;;5103331;27;20043;-83
2022/08/21 03:13:38;;;;;;;17.20;13.07;;;14.10;99.90;;;;;;5100089;27;20108;-84
2022/08/21 03:16:04;;;;;;;15.40;13.38;;;14.20;99.90;;;;;;5091397;27;20598;-83
2022/08/21 03:18:35;;;;;;;17.48;15.30;;;14.20;99.90;;;;;;5111249;27;20026;-84
2022/08/21 03:21:01;;;;;;;15.15;13.55;;;14.20;99.90;;;;;;5105753;27;20040;-84
2022/08/21 03:23:27;;;;;;;14.77;13.15;;;14.10;99.90;;;;;;5123128;27;20114;-84
2022/08/21 03:25:52;;;;;;;14.00;12.70;;;14.10;99.90;;;;;;5105968;27;20086;-83
2022/08/21 03:28:22;;;;;;;13.30;11.93;;;14.10;99.90;;;;;;5112251;27;20050;-83
2022/08/21 03:30:50;;;;;;;13.60;12.20;;;14.20;99.90;;;;;;5088841;28;20122;-84
2022/08/21 03:33:17;;;;;;;16.25;12.45;;;14.10;99.90;;;;;;5102024;28;20035;-84
2022/08/21 03:35:46;;;;;;;14.00;11.93;;;14.20;99.90;;;;;;5111551;27;20427;-84
2022/08/21 03:38:13;;;;;;;16.52;14.80;;;14.10;99.90;;;;;;5108863;27;20055;-84
2022/08/21 03:40:39;;;;;;;14.45;12.90;;;14.20;99.90;;;;;;5121611;28;20043;-84
2022/08/21 03:43:14;;;;;;;14.40;12.90;;;14.10;99.90;;;;;;5110861;27;20096;-84
2022/08/21 03:45:43;;;;;;;15.43;13.68;;;14.10;99.90;;;;;;5095810;27;20386;-85
2022/08/21 03:48:09;;;;;;;15.70;14.05;;;14.10;99.90;;;;;;5102072;28;20510;-86
2022/08/21 03:50:38;;;;;;;13.13;11.77;;;14.10;99.90;;;;;;5069197;28;20050;-85
2022/08/21 03:53:15;;;;;;;13.90;11.80;;;14.10;99.90;;;;;;5112919;27;20042;-84
2022/08/21 03:55:41;;;;;;;14.60;13.10;;;14.20;99.90;;;;;;5108317;27;20501;-85
2022/08/21 03:58:10;;;;;;;12.75;11.57;;;14.10;99.90;;;;;;5102040;27;20031;-87
2022/08/21 04:00:37;;;;;;;18.63;13.02;;;14.20;99.90;;;;;;5098392;27;20416;-85
2022/08/21 04:03:11;;;;;;;13.65;12.15;;;14.20;99.90;;;;;;5098344;27;20562;-84
2022/08/21 04:05:45;;;;;;;13.63;12.20;;;14.20;99.90;;;;;;5111536;27;20482;-84
2022/08/21 04:08:12;;;;;;;13.05;11.55;;;14.20;99.90;;;;;;5103173;27;20141;-84
2022/08/21 04:10:48;;;;;;;14.70;11.13;;;14.20;99.90;;;;;;5112523;27;21357;-84
2022/08/21 04:13:14;;;;;;;14.43;12.88;;;14.20;99.90;;;;;;5107626;27;20110;-84
2022/08/21 04:15:45;;;;;;;15.40;13.75;;;14.20;99.90;;;;;;5092968;27;20696;-85
2022/08/21 04:18:26;;;;;;;16.63;13.43;;;14.20;99.90;;;;;;5110358;27;20051;-85
2022/08/21 04:21:02;;;;;;;14.73;13.13;;;14.20;99.90;;;;;;5085778;27;20046;-84
2022/08/21 04:23:31;;;;;;;13.52;12.02;;;14.10;99.90;;;;;;5107871;27;20053;-85
2022/08/21 04:25:58;;;;;;;14.00;12.30;;;14.10;99.90;;;;;;5107118;27;20086;-84
2022/08/21 04:28:27;;;;;;;16.13;12.23;;;14.10;99.90;;;;;;5129693;27;20508;-85
2022/08/21 04:30:53;;;;;;;18.35;12.48;;;14.10;99.90;;;;;;5095561;27;20038;-84
2022/08/21 04:33:41;;;;;;;14.60;12.43;;;14.10;99.90;;;;;;5111229;27;20043;-85
2022/08/21 04:36:07;;;;;;;13.85;11.23;;;14.10;99.90;;;;;;5098344;27;20134;-85
2022/08/21 04:38:33;;;;;;;14.57;11.90;;;14.20;99.90;;;;;;5107701;27;20155;-84
2022/08/21 04:41:08;;;;;;;14.57;11.93;;;14.10;99.90;;;;;;5108779;27;20528;-85
2022/08/21 04:43:42;;;;;;;13.95;11.27;;;14.10;99.90;;;;;;5083936;27;20050;-85
2022/08/21 04:46:11;;;;;;;13.43;11.70;;;14.10;99.90;;;;;;5088595;27;20657;-85
2022/08/21 04:48:46;;;;;;;13.93;12.43;;;14.20;99.90;;;;;;5127005;27;20090;-85
2022/08/21 04:51:19;;;;;;;14.75;11.90;;;14.20;99.90;;;;;;5085542;27;20908;-85
2022/08/21 04:54:15;;;;;;;14.48;12.43;;;14.10;99.90;;;;;;5105176;27;20035;-85
2022/08/21 04:57:10;;;;;;;12.20;10.98;;;14.20;99.90;;;;;;5109627;27;20420;-85
2022/08/21 04:59:50;;;;;;;14.90;13.35;;;14.20;99.90;;;;;;5104224;27;20050;-85
2022/08/21 05:02:24;;;;;;;;;;;14.20;99.90;;;;;;5109890;27;20042;-85
2022/08/21 05:05:08;;;;;;;15.35;11.57;;;14.20;99.90;;;;;;5109411;27;19928;-85
2022/08/21 05:07:50;;;;;;;14.77;11.38;;;14.20;99.90;;;;;;5108188;27;20061;-84
2022/08/21 05:10:19;;;;;;;13.83;11.73;;;14.20;99.90;;;;;;5109026;27;20043;-85
2022/08/21 05:12:50;;;;;;;11.63;10.43;;;14.20;99.90;;;;;;5110712;27;20134;-85
2022/08/21 05:16:20;;;;;;;12.48;10.88;;;14.30;99.90;;;;;;5101049;27;20047;-86
2022/08/21 05:19:11;;;;;;;17.50;11.98;;;14.30;99.90;;;;;;5126547;27;20058;-85
2022/08/21 05:21:52;;;;;;;12.07;10.50;;;14.40;99.90;;;;;;5103178;27;20507;-85
2022/08/21 05:24:21;;;;;;;13.82;11.40;;;14.40;99.90;;;;;;5106831;27;20107;-86
2022/08/21 05:26:52;;;;;;;13.88;10.63;;;14.40;99.90;;;;;;5105737;27;20058;-85
2022/08/21 05:29:48;;;;;;;13.68;12.13;;;14.40;99.90;;;;;;5097825;27;20106;-86
2022/08/21 05:32:17;;;;;;;12.43;10.85;;;14.50;99.90;;;;;;5091977;27;20050;-85
2022/08/21 05:35:11;;;;;;;14.68;11.20;;;14.50;99.90;;;;;;5104448;27;20047;-86
2022/08/21 05:37:53;;;;;;;17.30;11.85;;;14.50;99.90;;;;;;5108882;27;20051;-85
2022/08/21 05:40:30;;;;;;;13.90;11.02;;;14.50;99.90;;;;;;5090743;28;20052;-86
2022/08/21 05:43:43;;;;;;;13.45;10.10;;;14.60;99.90;;;;;;5109157;27;20143;-85
2022/08/21 05:46:14;;;;;;;16.05;11.55;;;14.70;99.90;;;;;;5101178;28;20043;-85
2022/08/21 05:49:10;;;;;;;14.68;10.05;;;14.70;99.90;;;;;;5081933;27;20076;-85
2022/08/21 05:51:42;;;;;;;15.77;11.25;;;14.70;99.90;;;;;;5097486;27;20059;-86
2022/08/21 05:54:43;;;;;;;15.60;10.60;;;14.80;99.90;;;;;;5122239;27;20104;-86
2022/08/21 05:57:15;;;;;;;12.27;9.45;;;14.90;99.90;;;;;;5098219;27;20051;-85
2022/08/21 06:00:28;;;;;;;15.23;10.73;;;15.00;99.90;;;;;;5075984;27;20059;-85
2022/08/21 06:06:24;;;;;;;14.52;11.00;;;15.10;99.90;;;;;;5112914;27;20569;-85
2022/08/21 06:12:22;;;;;;;11.35;9.73;;;15.30;99.90;;;;;;5116077;27;20071;-85
2022/08/21 06:14:48;;;;;;;18.30;11.02;;;15.40;99.90;;;;;;5100585;27;20051;-84
2022/08/21 06:17:34;;;;;;;15.77;10.93;;;15.40;99.90;;;;;;5086207;27;20104;-85
2022/08/21 06:20:02;;;;;;;12.43;9.65;;;15.50;99.90;;;;;;5098979;27;20050;-84
2022/08/21 06:22:45;;;;;;;15.55;10.05;;;15.60;99.90;;;;;;5082729;28;20521;-84
2022/08/21 06:25:30;;;;;;;16.00;9.77;;;15.70;99.90;;;;;;5085427;28;20497;-85
2022/08/21 06:28:23;;;;;;;12.60;9.00;;;15.80;99.90;;;;;;5095365;28;20043;-85
2022/08/21 06:31:21;;;;;;;17.02;10.10;;;15.90;99.90;;;;;;5102540;27;20043;-86
2022/08/21 06:33:59;;;;;;;14.25;9.50;;;15.90;99.90;;;;;;5102618;27;20074;-84
2022/08/21 06:37:23;;;;;;;14.23;9.55;;;16.10;99.90;;;;;;5118911;27;20052;-85
2022/08/21 06:39:52;;;;;;;13.23;8.85;;;16.20;99.90;;;;;;5064892;27;20078;-84
2022/08/21 06:42:18;;;;;;;14.07;9.43;;;16.30;99.90;;;;;;5100848;27;20039;-84
2022/08/21 06:44:59;;;;;;;14.15;9.02;;;16.30;99.90;;;;;;5072249;28;20456;-84
2022/08/21 06:47:28;;;;;;;14.00;8.32;;;16.50;99.90;;;;;;5070396;27;20096;-83
2022/08/21 06:50:16;;;;;;;15.15;8.00;;;16.60;99.90;;;;;;5082780;27;20047;-85
2022/08/21 06:53:23;;;;;;;12.05;7.45;;;16.70;99.90;;;;;;5115434;27;20050;-85
2022/08/21 06:56:04;;;;;;;14.23;7.70;;;16.80;99.90;;;;;;5095293;28;20493;-85
2022/08/21 07:02:07;;;;;;;15.02;6.90;;;17.00;99.90;;;;;;5003305;28;20065;-84
2022/08/21 07:08:42;;;;;;;10.80;6.32;;;17.20;99.90;;;;;;4989156;28;20077;-86
2022/08/21 07:11:16;;;;;;;10.73;6.10;;;17.30;99.90;;;;;;4942655;28;20082;-83
2022/08/21 07:13:42;;;;;;;10.77;5.45;;;17.40;99.90;;;;;;5062619;28;20166;-83
2022/08/21 07:16:08;;;;;;;12.00;5.82;;;17.50;99.90;;;;;;5063786;28;20051;-83
2022/08/21 07:18:34;;;;;;;11.85;5.75;;;17.60;99.90;;;;;;5080406;28;20076;-83
2022/08/21 07:21:08;;;;;;;10.65;4.80;;;17.70;99.90;;;;;;5103008;28;20044;-82
2022/08/21 07:23:42;;;;;;;11.45;4.97;;;17.90;99.90;;;;;;5076598;28;20495;-83
2022/08/21 07:26:08;;;;;;;10.18;4.43;;;18.00;99.90;;;;;;5074833;28;20539;-83
2022/08/21 07:28:34;;;;;;;11.27;4.15;;;18.20;99.90;;;;;;5060919;28;20043;-84
2022/08/21 07:31:02;;;;;;;10.75;5.10;;;18.30;99.90;;;;;;5078204;28;20112;-82
2022/08/21 07:33:30;;;;;;;11.55;4.72;;;18.40;99.90;;;;;;5082350;28;20035;-82
2022/08/21 07:35:56;;;;;;;10.52;4.75;;;18.60;99.90;;;;;;5103439;28;20055;-81
2022/08/21 07:38:23;;;;;;;9.73;5.03;;;18.70;99.90;;;;;;5067694;28;20128;-82
2022/08/21 07:40:50;;;;;;;8.60;4.45;;;18.80;99.90;;;;;;5094826;28;20055;-83
2022/08/21 07:43:17;;;;;;;11.73;4.90;;;18.90;99.90;;;;;;5079887;27;20039;-84
2022/08/21 07:45:54;;;;;;;10.13;5.85;;;19.00;99.90;;;;;;5083989;27;20043;-82
2022/08/21 07:48:21;;;;;;;10.73;5.00;;;19.20;99.90;;;;;;5076648;27;20051;-82
2022/08/21 07:50:48;;;;;;;14.40;5.63;;;19.30;99.90;;;;;;5089538;27;20047;-84
2022/08/21 07:53:14;;;;;;;11.05;4.50;;;19.40;99.90;;;;;;5072995;27;20100;-84
2022/08/21 07:55:40;;;;;;;9.68;4.03;;;19.40;99.90;;;;;;5091633;27;20063;-84
2022/08/21 07:58:09;;;;;;;11.90;4.18;;;19.50;99.90;;;;;;5078484;27;20043;-83
2022/08/21 08:00:34;;;;;;;12.98;4.28;;;19.60;99.90;;;;;;5083369;28;20042;-86
2022/08/21 08:03:02;;;;;;;10.43;3.85;;;19.80;99.90;;;;;;5056122;27;20039;-84
2022/08/21 08:05:29;;;;;;;10.15;3.42;;;19.90;99.90;;;;;;5074738;27;20051;-83
2022/08/21 08:07:56;;;;;;;13.82;4.15;;;20.00;99.90;;;;;;5089430;27;20106;-83
2022/08/21 08:10:23;;;;;;;11.13;4.20;;;20.20;99.90;;;;;;5094563;27;20100;-85
2022/08/21 08:12:51;;;;;;;9.60;4.03;;;20.30;99.90;;;;;;5084341;27;20070;-84
2022/08/21 08:15:22;;;;;;;8.90;3.75;;;20.30;99.90;;;;;;5085617;28;20043;-84
2022/08/21 08:17:52;;;;;;;10.23;4.10;;;20.30;99.90;;;;;;5079559;28;20131;-82
2022/08/21 08:20:19;;;;;;;10.57;3.88;;;20.40;99.90;;;;;;5079717;27;20405;-82
2022/08/21 08:22:48;;;;;;;9.73;4.20;;;20.40;99.90;;;;;;5099790;27;20402;-86
2022/08/21 08:25:16;;;;;;;11.98;3.78;;;20.50;99.90;;;;;;5082997;28;20783;-85
2022/08/21 08:27:42;;;;;;;13.77;4.20;;;20.60;99.90;;;;;;5085584;27;20044;-84
2022/08/21 08:30:11;;;;;;;9.57;3.28;;;20.70;99.90;;;;;;5083027;27;20494;-84
2022/08/21 08:32:42;;;;;;;12.45;4.32;;;20.80;99.90;;;;;;5100626;27;20409;-88
2022/08/21 08:35:09;;;;;;;9.10;4.00;;;21.00;99.90;;;;;;5066611;27;20042;-85
2022/08/21 08:37:40;;;;;;;11.38;3.75;;;21.10;99.90;;;;;;5094165;27;20050;-83
2022/08/21 08:40:25;;;;;;;8.30;3.65;;;21.30;99.90;;;;;;5101057;27;20557;-83
2022/08/21 08:42:50;;;;;;;10.27;3.65;;;21.40;99.90;;;;;;5124843;27;20125;-86
2022/08/21 08:45:21;;;;;;;8.85;3.25;;;21.50;99.90;;;;;;5088582;27;20102;-85
2022/08/21 08:47:57;;;;;;;8.15;2.70;;;21.50;99.90;;;;;;5101358;27;20062;-84
2022/08/21 08:50:45;;;;;;;7.15;2.50;;;21.50;99.90;;;;;;5119662;27;20177;-84
2022/08/21 08:53:28;;;;;;;10.18;2.63;;;21.60;99.90;;;;;;5102983;27;20155;-85
2022/08/21 08:55:55;;;;;;;8.55;1.98;;;21.80;99.90;;;;;;5098800;27;20046;-84
2022/08/21 08:58:37;;;;;;;8.93;2.53;;;21.90;99.90;;;;;;5107939;27;20394;-86
2022/08/21 09:01:11;;;;;;;7.43;2.17;;;22.00;99.90;;;;;;5100927;27;20039;-84
2022/08/21 09:03:40;;;;;;;7.28;2.20;;;22.00;99.90;;;;;;5116213;27;20046;-87
2022/08/21 09:06:40;;;;;;;6.47;1.65;;;22.10;99.90;;;;;;5109992;27;20043;-81
2022/08/21 09:09:31;;;;;;;7.68;1.95;;;22.20;99.90;;;;;;5115926;27;20040;-81
2022/08/21 09:12:03;;;;;;;7.40;1.60;;;22.40;99.90;;;;;;5104682;27;20054;-83
2022/08/21 09:15:02;;;;;;;8.73;2.00;;;22.50;99.90;;;;;;5115982;27;20497;-84
2022/08/21 09:17:39;;;;;;;8.18;2.05;;;22.60;99.90;;;;;;5101736;27;20484;-84
2022/08/21 09:20:11;;;;;;;8.75;2.13;;;22.60;99.90;;;;;;5121652;27;20043;-85
2022/08/21 09:22:55;;;;;;;5.70;1.50;;;22.70;99.90;;;;;;5106650;27;20134;-83
2022/08/21 09:25:32;;;;;;;7.10;1.85;;;22.70;99.90;;;;;;5114850;27;20042;-89
2022/08/21 09:27:58;;;;;;;7.88;2.13;;;22.80;99.90;;;;;;5112026;27;20046;-84
2022/08/21 09:30:31;;;;;;;7.18;1.48;;;22.80;99.90;;;;;;5111518;27;20096;-84
2022/08/21 09:33:00;;;;;;;7.95;1.85;;;23.00;99.90;;;;;;5122900;27;20046;-83
2022/08/21 09:35:26;;;;;;;8.30;1.88;;;23.20;99.90;;;;;;5101989;27;20430;-84
2022/08/21 09:37:57;;;;;;;9.77;1.88;;;23.20;99.90;;;;;;5078915;27;20584;-84
2022/08/21 09:40:36;;;;;;;8.48;2.45;;;23.40;99.90;;;;;;5100747;27;20070;-82
2022/08/21 09:43:11;;;;;;;6.68;2.25;;;23.40;99.90;;;;;;5122517;27;20047;-84
2022/08/21 09:45:42;;;;;;;6.70;2.17;;;23.40;99.90;;;;;;5110569;27;20100;-86
2022/08/21 09:48:08;;;;;;;7.95;2.30;;;23.40;99.90;;;;;;5090909;27;20039;-83
2022/08/21 09:50:34;;;;;;;8.07;2.50;;;23.50;99.90;;;;;;5107999;27;20069;-83
2022/08/21 09:53:01;;;;;;;9.55;2.67;;;23.50;99.90;;;;;;5114815;27;20098;-83
2022/08/21 09:58:37;;;;;;;8.20;1.95;;;23.40;99.90;;;;;;5121981;27;20046;-83
2022/08/21 10:01:08;;;;;;;8.80;2.00;;;23.50;99.90;;;;;;5103086;27;20131;-83
2022/08/21 10:03:34;;;;;;;6.32;1.83;;;23.70;99.90;;;;;;5100339;27;20704;-83
2022/08/21 10:06:08;;;;;;;8.48;2.35;;;23.80;99.90;;;;;;5094418;27;20054;-85
2022/08/21 10:08:36;;;;;;;8.52;2.28;;;24.00;99.90;;;;;;5121573;27;20051;-83
2022/08/21 10:11:07;;;;;;;7.32;1.98;;;24.20;99.90;;;;;;5103463;27;20032;-83
2022/08/21 10:14:01;;;;;;;6.88;1.90;;;24.20;99.90;;;;;;5127816;27;20078;-83
2022/08/21 10:16:50;;;;;;;10.32;2.25;;;24.40;99.90;;;;;;5102929;27;20051;-82
2022/08/21 10:19:37;;;;;;;9.02;2.45;;;24.40;99.90;;;;;;5103855;27;20498;-82
2022/08/21 10:22:15;;;;;;;7.88;2.17;;;24.40;99.90;;;;;;5108812;27;20066;-82
2022/08/21 10:25:29;;;;;;;7.82;1.63;;;24.50;99.90;;;;;;5111461;27;20699;-83
2022/08/21 10:28:17;;;;;;;5.30;1.88;;;24.30;99.20;;;;;;5085097;27;20366;-82
2022/08/21 10:30:50;;;;;;;9.07;1.90;;;23.90;99.10;;;;;;5092914;27;20065;-83
2022/08/21 10:34:01;;;;;;;7.40;2.40;;;23.80;99.90;;;;;;5104131;27;20101;-83
2022/08/21 10:36:37;;;;;;;8.32;1.95;;;23.90;99.90;;;;;;5093694;27;20080;-82
2022/08/21 10:39:29;;;;;;;9.25;2.20;;;23.90;99.90;;;;;;5108622;27;20119;-82
2022/08/21 10:42:41;;;;;;;6.97;2.00;;;23.70;99.90;;;;;;5117476;27;20142;-82
2022/08/21 10:45:13;;;;;;;7.57;2.08;;;23.70;99.90;;;;;;5111179;27;20044;-85
2022/08/21 10:47:54;;;;;;;7.78;1.92;;;23.60;99.90;;;;;;5105749;27;20134;-80
2022/08/21 10:51:10;;;;;;;9.55;2.10;;;23.50;99.90;;;;;;5103225;28;20043;-80
2022/08/21 10:54:02;;;;;;;7.90;2.25;;;23.50;99.90;;;;;;5042347;28;20045;-80
2022/08/21 10:56:36;;;;;;;8.48;2.20;;;23.80;99.90;;;;;;5038549;28;20665;-81
2022/08/21 10:59:35;;;;;;;8.57;2.15;;;24.00;99.90;;;;;;5079644;28;20565;-80
2022/08/21 11:02:31;;;;;;;9.13;2.15;;;24.20;99.10;;;;;;5049767;28;20064;-80
2022/08/21 11:05:33;;;;;;;7.43;2.03;;;24.20;98.00;;;;;;5120675;27;20047;-80
2022/08/21 11:08:12;;;;;;;6.28;1.90;;;24.20;97.80;;;;;;5043327;28;20069;-80
2022/08/21 11:10:47;;;;;;;8.07;2.63;;;24.40;99.90;;;;;;5108861;27;20494;-83
2022/08/21 11:13:45;;;;;;;7.32;1.75;;;24.50;98.00;;;;;;5117102;27;21347;-82
2022/08/21 11:16:29;;;;;;;6.03;1.98;;;24.70;98.00;;;;;;5091325;28;20062;-82
2022/08/21 11:19:04;;;;;;;8.07;2.35;;;24.80;95.00;;;;;;5118729;28;20505;-81
2022/08/21 11:21:42;;;;;;;11.27;2.63;;;24.90;95.80;;;;;;5096763;28;20046;-79
2022/08/21 11:24:31;;;;;;;8.20;2.55;;;25.00;95.30;;;;;;5092307;28;20043;-83
2022/08/21 11:27:18;;;;;;;6.80;2.03;;;25.10;95.30;;;;;;5123074;28;20205;-81
2022/08/21 11:29:49;;;;;;;7.40;1.80;;;25.20;95.20;;;;;;5109422;28;20047;-81
2022/08/21 11:32:21;;;;;;;6.90;1.70;;;25.10;94.10;;;;;;5111485;28;20031;-81
2022/08/21 11:35:02;;;;;;;9.18;2.05;;;24.90;92.40;;;;;;5109863;28;20464;-80
2022/08/21 11:37:50;;;;;;;8.23;2.03;;;24.80;93.10;;;;;;5125391;27;20047;-80
2022/08/21 11:40:46;;;;;;;7.57;2.20;;;24.80;94.10;;;;;;5115728;27;20050;-80
2022/08/21 11:43:18;;;;;;;6.90;1.58;;;25.00;91.80;;;;;;5123739;27;20137;-81
2022/08/21 11:45:54;;;;;;;5.90;1.80;;;25.20;92.70;;;;;;5104936;27;20039;-80
2022/08/21 11:48:42;;;;;;;5.45;1.83;;;25.40;92.90;;;;;;5119577;27;20042;-78
2022/08/21 11:51:14;;;;;;;5.85;1.48;;;25.50;93.00;;;;;;5112268;27;21739;-79
2022/08/21 11:53:52;;;;;;;8.25;1.80;;;25.60;89.60;;;;;;5122974;27;20031;-81
2022/08/21 11:56:44;;;;;;;5.32;1.92;;;25.60;89.60;;;;;;5105172;27;20049;-82
2022/08/21 11:59:20;;;;;;;6.30;1.70;;;25.70;89.90;;;;;;5131281;27;20050;-83
2022/08/21 12:01:48;;;;;;;6.22;1.70;;;25.80;90.00;;;;;;5103409;27;20099;-83
2022/08/21 12:04:30;;;;;;;6.50;1.55;;;25.80;89.90;;;;;;5120115;27;20044;-83
2022/08/21 12:06:56;;;;;;;7.03;2.08;;;26.00;90.10;;;;;;5112146;27;20699;-83
2022/08/21 12:09:25;;;;;;;7.63;1.77;;;25.80;90.30;;;;;;5099199;28;20462;-83
2022/08/21 12:12:21;;;;;;;8.00;2.00;;;25.60;91.30;;;;;;5117429;27;20122;-84
2022/08/21 12:14:50;;;;;;;7.28;1.83;;;25.40;90.50;;;;;;5105646;27;20049;-83
2022/08/21 12:17:21;;;;;;;6.03;1.83;;;25.20;90.00;;;;;;5098099;28;20047;-83
2022/08/21 12:20:02;;;;;;;6.22;1.83;;;25.00;90.50;;;;;;5116856;27;20054;-82
2022/08/21 12:22:41;;;;;;;8.88;2.08;;;24.80;90.40;;;;;;5122456;27;20042;-83
2022/08/21 12:25:16;;;;;;;7.82;2.10;;;24.70;93.90;;;;;;5098758;27;20043;-84
2022/08/21 12:27:52;;;;;;;6.55;1.63;;;24.50;93.30;;;;;;5120895;27;20612;-84
2022/08/21 12:30:27;;;;;;;8.27;2.10;;;24.40;92.40;;;;;;5117151;27;20393;-83
2022/08/21 12:33:02;;;;;;;7.40;1.98;;;24.30;92.90;;;;;;5097661;27;20041;-83
2022/08/21 12:35:37;;;;;;;9.18;1.88;;;24.40;93.40;;;;;;5117390;27;20058;-84
2022/08/21 12:38:41;;;;;;;6.90;2.05;;;24.40;93.70;;;;;;5109085;27;20061;-80
2022/08/21 12:41:17;;;;;;;7.28;2.17;;;24.40;94.80;;;;;;5121475;27;20043;-80
2022/08/21 12:43:58;;;;;;;6.50;2.17;;;24.40;94.80;;;;;;5119832;27;20054;-80
2022/08/21 12:46:38;;;;;;;9.32;2.08;;;24.40;95.40;;;;;;5136557;27;20054;-81
2022/08/21 12:49:13;;;;;;;6.20;1.95;;;24.40;95.20;;;;;;5109101;27;20038;-80
2022/08/21 12:51:56;;;;;;;6.18;1.83;;;24.30;95.00;;;;;;5119877;27;21254;-79
2022/08/21 12:54:28;;;;;;;10.13;2.72;;;24.20;94.60;;;;;;5117587;27;20240;-79
2022/08/21 12:57:05;;;;;;;6.63;1.90;;;24.20;96.00;;;;;;5111001;27;20142;-81
2022/08/21 12:59:36;;;;;;;6.68;1.92;;;24.30;96.50;;;;;;5092014;27;20130;-79
2022/08/21 13:02:10;;;;;;;6.78;2.17;;;24.50;97.10;;;;;;5126287;27;20039;-79
2022/08/21 13:04:39;;;;;;;9.15;1.85;;;24.80;95.70;;;;;;5104858;27;20062;-80
2022/08/21 13:07:14;;;;;;;6.13;1.90;;;24.90;95.20;;;;;;5107862;27;20039;-80
2022/08/21 13:09:55;;;;;;;12.02;2.53;;;24.90;94.00;;;;;;5115619;27;20134;-79
2022/08/21 13:12:23;;;;;;;6.60;1.88;;;24.90;94.40;;;;;;5121802;27;20074;-81
2022/08/21 13:14:51;;;;;;;6.32;2.17;;;25.00;95.40;;;;;;5102877;27;20046;-79
2022/08/21 13:17:19;;;;;;;8.52;2.63;;;25.20;97.90;;;;;;5102945;27;20042;-79
2022/08/21 13:20:03;;;;;;;5.88;2.00;;;25.30;98.50;;;;;;5111097;27;20062;-78
2022/08/21 13:22:35;;;;;;;9.40;2.30;;;25.40;98.60;;;;;;5100163;27;20485;-78
2022/08/21 13:25:10;;;;;;;7.97;2.00;;;25.30;97.10;;;;;;5099834;27;20050;-78
2022/08/21 13:27:36;;;;;;;8.95;2.28;;;25.20;97.90;;;;;;5108640;27;20039;-79
2022/08/21 13:30:08;;;;;;;7.47;2.63;;;25.20;98.10;;;;;;5102147;27;20077;-78
2022/08/21 13:32:37;;;;;;;8.88;2.50;;;25.30;97.70;;;;;;5116348;27;20090;-78
2022/08/21 13:35:22;;;;;;;7.90;2.20;;;25.20;97.10;;;;;;5108741;27;20047;-78